sensor_id;sensor_type;location;lat;lon;timestamp;P1;durP1;ratioP1;P2;durP2;ratioP2
46222;SDS011;31943;51.410;7.564;2022-08-19T00:01:10;16.00;;;14.45;;
46222;SDS011;31943;51.410;7.564;2022-08-19T00:03:36;14.63;;;13.43;;
46222;SDS011;31943;51.410;7.564;2022-08-19T00:06:01;15.70;;;14.07;;
46222;SDS011;31943;51.410;7.564;2022-08-19T00:08:27;16.25;;;14.68;;
46222;SDS011;31943;51.410;7.564;2022-08-19T00:10:53;14.75;;;13.32;;
46222;SDS011;31943;51.410;7.564;2022-08-19T00:13:18;15.82;;;14.27;;
46222;SDS011;31943;51.410;7.564;2022-08-19T00:15:44;16.40;;;14.85;;
46222;SDS011;31943;51.410;7.564;2022-08-19T00:18:12;17.58;;;15.57;;
46222;SDS011;31943;51.410;7.564;2022-08-19T00:20:37;16.42;;;14.80;;
46222;SDS011;31943;51.410;7.564;2022-08-19T00:23:03;17.15;;;15.45;;
46222;SDS011;31943;51.410;7.564;2022-08-19T00:25:29;18.98;;;16.80;;
46222;SDS011;31943;51.410;7.564;2022-08-19T00:27:54;17.17;;;15.48;;
46222;SDS011;31943;51.410;7.564;2022-08-19T00:30:20;16.38;;;14.88;;
46222;SDS011;31943;51.410;7.564;2022-08-19T00:32:46;16.15;;;14.68;;
46222;SDS011;31943;51.410;7.564;2022-08-19T00:35:13;17.30;;;15.55;;
46222;SDS011;31943;51.410;7.564;2022-08-19T00:37:38;18.05;;;16.40;;
46222;SDS011;31943;51.410;7.564;2022-08-19T00:40:05;18.23;;;16.63;;
46222;SDS011;31943;51.410;7.564;2022-08-19T00:42:32;17.27;;;15.65;;
46222;SDS011;31943;51.410;7.564;2022-08-19T00:44:57;17.25;;;15.75;;
46222;SDS011;31943;51.410;7.564;2022-08-19T00:47:23;17.92;;;16.33;;
46222;SDS011;31943;51.410;7.564;2022-08-19T00:49:49;18.23;;;16.38;;
46222;SDS011;31943;51.410;7.564;2022-08-19T00:52:21;16.88;;;15.30;;
46222;SDS011;31943;51.410;7.564;2022-08-19T00:54:50;16.08;;;14.68;;
46222;SDS011;31943;51.410;7.564;2022-08-19T00:57:20;15.05;;;13.65;;
46222;SDS011;31943;51.410;7.564;2022-08-19T00:59:51;15.73;;;14.32;;
46222;SDS011;31943;51.410;7.564;2022-08-19T01:02:19;15.77;;;14.27;;
46222;SDS011;31943;51.410;7.564;2022-08-19T01:04:45;16.80;;;15.15;;
46222;SDS011;31943;51.410;7.564;2022-08-19T01:07:11;16.58;;;15.07;;
46222;SDS011;31943;51.410;7.564;2022-08-19T01:09:39;17.20;;;14.48;;
46222;SDS011;31943;51.410;7.564;2022-08-19T01:12:05;16.60;;;15.10;;
46222;SDS011;31943;51.410;7.564;2022-08-19T01:14:31;17.02;;;15.50;;
46222;SDS011;31943;51.410;7.564;2022-08-19T01:16:58;17.05;;;15.45;;
46222;SDS011;31943;51.410;7.564;2022-08-19T01:19:26;18.10;;;16.20;;
46222;SDS011;31943;51.410;7.564;2022-08-19T01:21:55;16.45;;;14.85;;
46222;SDS011;31943;51.410;7.564;2022-08-19T01:24:27;15.93;;;14.30;;
46222;SDS011;31943;51.410;7.564;2022-08-19T01:26:53;15.68;;;14.32;;
46222;SDS011;31943;51.410;7.564;2022-08-19T01:29:19;14.80;;;13.50;;
46222;SDS011;31943;51.410;7.564;2022-08-19T01:31:45;15.30;;;13.77;;
46222;SDS011;31943;51.410;7.564;2022-08-19T01:34:11;15.25;;;13.68;;
46222;SDS011;31943;51.410;7.564;2022-08-19T01:36:38;14.73;;;13.32;;
46222;SDS011;31943;51.410;7.564;2022-08-19T01:39:07;16.45;;;14.80;;
46222;SDS011;31943;51.410;7.564;2022-08-19T01:41:36;16.08;;;14.57;;
46222;SDS011;31943;51.410;7.564;2022-08-19T01:44:02;15.98;;;14.38;;
46222;SDS011;31943;51.410;7.564;2022-08-19T01:46:29;15.93;;;14.45;;
46222;SDS011;31943;51.410;7.564;2022-08-19T01:48:55;16.45;;;14.75;;
46222;SDS011;31943;51.410;7.564;2022-08-19T01:51:21;16.92;;;15.38;;
46222;SDS011;31943;51.410;7.564;2022-08-19T01:53:48;16.48;;;15.02;;
46222;SDS011;31943;51.410;7.564;2022-08-19T01:56:14;16.08;;;14.50;;
46222;SDS011;31943;51.410;7.564;2022-08-19T01:58:43;16.73;;;15.10;;
46222;SDS011;31943;51.410;7.564;2022-08-19T02:01:14;15.25;;;13.95;;
46222;SDS011;31943;51.410;7.564;2022-08-19T02:03:40;16.20;;;14.68;;
46222;SDS011;31943;51.410;7.564;2022-08-19T02:06:05;16.20;;;14.57;;
46222;SDS011;31943;51.410;7.564;2022-08-19T02:08:33;16.50;;;14.95;;
46222;SDS011;31943;51.410;7.564;2022-08-19T02:11:01;17.20;;;15.55;;
46222;SDS011;31943;51.410;7.564;2022-08-19T02:13:28;16.88;;;15.35;;
46222;SDS011;31943;51.410;7.564;2022-08-19T02:15:56;19.33;;;16.17;;
46222;SDS011;31943;51.410;7.564;2022-08-19T02:18:21;17.23;;;15.68;;
46222;SDS011;31943;51.410;7.564;2022-08-19T02:20:47;16.25;;;14.55;;
46222;SDS011;31943;51.410;7.564;2022-08-19T02:23:13;16.17;;;14.75;;
46222;SDS011;31943;51.410;7.564;2022-08-19T02:25:40;16.83;;;15.23;;
46222;SDS011;31943;51.410;7.564;2022-08-19T02:28:06;16.15;;;14.68;;
46222;SDS011;31943;51.410;7.564;2022-08-19T02:30:32;16.88;;;15.20;;
46222;SDS011;31943;51.410;7.564;2022-08-19T02:33:00;17.02;;;15.48;;
46222;SDS011;31943;51.410;7.564;2022-08-19T02:35:25;17.15;;;15.35;;
46222;SDS011;31943;51.410;7.564;2022-08-19T02:37:51;17.48;;;15.98;;
46222;SDS011;31943;51.410;7.564;2022-08-19T02:40:17;18.50;;;16.83;;
46222;SDS011;31943;51.410;7.564;2022-08-19T02:42:42;17.80;;;16.13;;
46222;SDS011;31943;51.410;7.564;2022-08-19T02:45:09;16.75;;;15.15;;
46222;SDS011;31943;51.410;7.564;2022-08-19T02:47:35;16.40;;;14.82;;
46222;SDS011;31943;51.410;7.564;2022-08-19T02:50:02;16.02;;;14.48;;
46222;SDS011;31943;51.410;7.564;2022-08-19T02:52:29;16.05;;;14.65;;
46222;SDS011;31943;51.410;7.564;2022-08-19T02:54:56;17.67;;;15.98;;
46222;SDS011;31943;51.410;7.564;2022-08-19T02:57:22;16.83;;;15.23;;
46222;SDS011;31943;51.410;7.564;2022-08-19T02:59:47;20.10;;;18.27;;
46222;SDS011;31943;51.410;7.564;2022-08-19T03:02:13;18.50;;;16.70;;
46222;SDS011;31943;51.410;7.564;2022-08-19T03:04:38;19.88;;;17.98;;
46222;SDS011;31943;51.410;7.564;2022-08-19T03:07:06;18.50;;;16.70;;
46222;SDS011;31943;51.410;7.564;2022-08-19T03:09:32;18.15;;;16.30;;
46222;SDS011;31943;51.410;7.564;2022-08-19T03:11:58;18.17;;;16.45;;
46222;SDS011;31943;51.410;7.564;2022-08-19T03:14:24;18.08;;;16.38;;
46222;SDS011;31943;51.410;7.564;2022-08-19T03:16:50;16.70;;;15.20;;
46222;SDS011;31943;51.410;7.564;2022-08-19T03:19:17;17.33;;;15.82;;
46222;SDS011;31943;51.410;7.564;2022-08-19T03:21:45;18.05;;;16.40;;
46222;SDS011;31943;51.410;7.564;2022-08-19T03:24:13;17.92;;;15.82;;
46222;SDS011;31943;51.410;7.564;2022-08-19T03:26:40;18.25;;;16.50;;
46222;SDS011;31943;51.410;7.564;2022-08-19T03:29:07;18.20;;;16.23;;
46222;SDS011;31943;51.410;7.564;2022-08-19T03:31:34;20.10;;;18.08;;
46222;SDS011;31943;51.410;7.564;2022-08-19T03:33:59;18.65;;;16.85;;
46222;SDS011;31943;51.410;7.564;2022-08-19T03:36:25;17.23;;;15.55;;
46222;SDS011;31943;51.410;7.564;2022-08-19T03:38:52;18.52;;;16.83;;
46222;SDS011;31943;51.410;7.564;2022-08-19T03:41:23;17.08;;;15.38;;
46222;SDS011;31943;51.410;7.564;2022-08-19T03:43:51;18.77;;;17.08;;
46222;SDS011;31943;51.410;7.564;2022-08-19T03:46:24;18.08;;;16.45;;
46222;SDS011;31943;51.410;7.564;2022-08-19T03:48:51;17.45;;;15.75;;
46222;SDS011;31943;51.410;7.564;2022-08-19T03:51:19;19.90;;;17.95;;
46222;SDS011;31943;51.410;7.564;2022-08-19T03:53:47;20.02;;;17.92;;
46222;SDS011;31943;51.410;7.564;2022-08-19T03:56:15;19.90;;;17.85;;
46222;SDS011;31943;51.410;7.564;2022-08-19T03:58:43;20.50;;;18.50;;
46222;SDS011;31943;51.410;7.564;2022-08-19T04:01:10;20.75;;;18.65;;
46222;SDS011;31943;51.410;7.564;2022-08-19T04:03:38;21.25;;;19.02;;
46222;SDS011;31943;51.410;7.564;2022-08-19T04:06:09;19.55;;;17.67;;
46222;SDS011;31943;51.410;7.564;2022-08-19T04:11:01;19.10;;;16.98;;
46222;SDS011;31943;51.410;7.564;2022-08-19T04:13:26;18.42;;;16.58;;
46222;SDS011;31943;51.410;7.564;2022-08-19T04:15:53;20.83;;;18.80;;
46222;SDS011;31943;51.410;7.564;2022-08-19T04:18:19;20.67;;;18.33;;
46222;SDS011;31943;51.410;7.564;2022-08-19T04:20:46;19.42;;;17.52;;
46222;SDS011;31943;51.410;7.564;2022-08-19T04:23:12;18.35;;;16.55;;
46222;SDS011;31943;51.410;7.564;2022-08-19T04:25:38;20.30;;;18.40;;
46222;SDS011;31943;51.410;7.564;2022-08-19T04:28:05;18.55;;;16.55;;
46222;SDS011;31943;51.410;7.564;2022-08-19T04:30:31;17.83;;;16.02;;
46222;SDS011;31943;51.410;7.564;2022-08-19T04:33:04;17.25;;;15.57;;
46222;SDS011;31943;51.410;7.564;2022-08-19T04:35:33;20.85;;;18.77;;
46222;SDS011;31943;51.410;7.564;2022-08-19T04:38:00;20.42;;;18.38;;
46222;SDS011;31943;51.410;7.564;2022-08-19T04:40:26;20.73;;;17.88;;
46222;SDS011;31943;51.410;7.564;2022-08-19T04:42:51;20.05;;;18.00;;
46222;SDS011;31943;51.410;7.564;2022-08-19T04:45:17;18.75;;;17.05;;
46222;SDS011;31943;51.410;7.564;2022-08-19T04:47:43;19.42;;;17.42;;
46222;SDS011;31943;51.410;7.564;2022-08-19T04:50:11;19.90;;;17.88;;
46222;SDS011;31943;51.410;7.564;2022-08-19T04:52:37;20.33;;;18.23;;
46222;SDS011;31943;51.410;7.564;2022-08-19T04:55:06;19.77;;;17.98;;
46222;SDS011;31943;51.410;7.564;2022-08-19T04:57:32;18.77;;;16.83;;
46222;SDS011;31943;51.410;7.564;2022-08-19T04:59:58;20.23;;;18.30;;
46222;SDS011;31943;51.410;7.564;2022-08-19T05:02:24;18.92;;;17.13;;
46222;SDS011;31943;51.410;7.564;2022-08-19T05:04:50;19.42;;;17.42;;
46222;SDS011;31943;51.410;7.564;2022-08-19T05:07:18;20.50;;;18.50;;
46222;SDS011;31943;51.410;7.564;2022-08-19T05:09:44;18.92;;;17.05;;
46222;SDS011;31943;51.410;7.564;2022-08-19T05:12:10;20.25;;;18.25;;
46222;SDS011;31943;51.410;7.564;2022-08-19T05:14:36;20.17;;;18.25;;
46222;SDS011;31943;51.410;7.564;2022-08-19T05:17:01;22.05;;;18.80;;
46222;SDS011;31943;51.410;7.564;2022-08-19T05:19:27;22.05;;;19.52;;
46222;SDS011;31943;51.410;7.564;2022-08-19T05:21:53;19.15;;;17.35;;
46222;SDS011;31943;51.410;7.564;2022-08-19T05:24:21;19.40;;;17.33;;
46222;SDS011;31943;51.410;7.564;2022-08-19T05:26:49;20.65;;;18.67;;
46222;SDS011;31943;51.410;7.564;2022-08-19T05:29:17;20.38;;;17.45;;
46222;SDS011;31943;51.410;7.564;2022-08-19T05:31:45;21.65;;;19.45;;
46222;SDS011;31943;51.410;7.564;2022-08-19T05:34:12;18.55;;;16.55;;
46222;SDS011;31943;51.410;7.564;2022-08-19T05:36:38;19.35;;;17.38;;
46222;SDS011;31943;51.410;7.564;2022-08-19T05:39:05;19.45;;;17.55;;
46222;SDS011;31943;51.410;7.564;2022-08-19T05:41:34;23.13;;;19.02;;
46222;SDS011;31943;51.410;7.564;2022-08-19T05:44:01;22.00;;;19.92;;
46222;SDS011;31943;51.410;7.564;2022-08-19T05:46:28;19.17;;;16.85;;
46222;SDS011;31943;51.410;7.564;2022-08-19T05:48:54;20.60;;;18.45;;
46222;SDS011;31943;51.410;7.564;2022-08-19T05:51:19;21.00;;;18.92;;
46222;SDS011;31943;51.410;7.564;2022-08-19T05:53:45;20.00;;;18.00;;
46222;SDS011;31943;51.410;7.564;2022-08-19T05:56:11;19.52;;;17.55;;
46222;SDS011;31943;51.410;7.564;2022-08-19T05:58:40;21.75;;;19.60;;
46222;SDS011;31943;51.410;7.564;2022-08-19T06:01:09;23.20;;;20.90;;
46222;SDS011;31943;51.410;7.564;2022-08-19T06:03:36;17.90;;;16.10;;
46222;SDS011;31943;51.410;7.564;2022-08-19T06:06:01;21.20;;;19.13;;
46222;SDS011;31943;51.410;7.564;2022-08-19T06:08:27;17.52;;;15.73;;
46222;SDS011;31943;51.410;7.564;2022-08-19T06:10:53;21.70;;;19.63;;
46222;SDS011;31943;51.410;7.564;2022-08-19T06:13:19;17.40;;;15.63;;
46222;SDS011;31943;51.410;7.564;2022-08-19T06:15:46;19.75;;;17.75;;
46222;SDS011;31943;51.410;7.564;2022-08-19T06:18:12;20.92;;;18.42;;
46222;SDS011;31943;51.410;7.564;2022-08-19T06:20:39;20.02;;;18.10;;
46222;SDS011;31943;51.410;7.564;2022-08-19T06:23:05;22.20;;;20.05;;
46222;SDS011;31943;51.410;7.564;2022-08-19T06:25:31;16.75;;;14.85;;
46222;SDS011;31943;51.410;7.564;2022-08-19T06:27:57;19.83;;;18.02;;
46222;SDS011;31943;51.410;7.564;2022-08-19T06:30:22;19.52;;;17.60;;
46222;SDS011;31943;51.410;7.564;2022-08-19T06:32:50;19.48;;;17.52;;
46222;SDS011;31943;51.410;7.564;2022-08-19T06:35:16;54.72;;;20.98;;
46222;SDS011;31943;51.410;7.564;2022-08-19T06:37:41;21.98;;;19.77;;
46222;SDS011;31943;51.410;7.564;2022-08-19T06:40:07;24.27;;;21.92;;
46222;SDS011;31943;51.410;7.564;2022-08-19T06:42:33;22.27;;;19.65;;
46222;SDS011;31943;51.410;7.564;2022-08-19T06:44:59;20.05;;;18.08;;
46222;SDS011;31943;51.410;7.564;2022-08-19T06:47:24;22.92;;;20.60;;
46222;SDS011;31943;51.410;7.564;2022-08-19T06:49:54;23.30;;;21.10;;
46222;SDS011;31943;51.410;7.564;2022-08-19T06:52:19;22.52;;;20.17;;
46222;SDS011;31943;51.410;7.564;2022-08-19T06:54:45;21.95;;;19.65;;
46222;SDS011;31943;51.410;7.564;2022-08-19T06:57:11;21.45;;;19.25;;
46222;SDS011;31943;51.410;7.564;2022-08-19T06:59:37;21.92;;;19.65;;
46222;SDS011;31943;51.410;7.564;2022-08-19T07:02:04;23.20;;;20.83;;
46222;SDS011;31943;51.410;7.564;2022-08-19T07:04:30;25.08;;;20.23;;
46222;SDS011;31943;51.410;7.564;2022-08-19T07:06:59;23.77;;;20.67;;
46222;SDS011;31943;51.410;7.564;2022-08-19T07:09:28;19.40;;;17.17;;
46222;SDS011;31943;51.410;7.564;2022-08-19T07:11:54;22.50;;;19.55;;
46222;SDS011;31943;51.410;7.564;2022-08-19T07:14:21;21.30;;;19.20;;
46222;SDS011;31943;51.410;7.564;2022-08-19T07:16:49;21.52;;;19.23;;
46222;SDS011;31943;51.410;7.564;2022-08-19T07:19:16;25.10;;;19.63;;
46222;SDS011;31943;51.410;7.564;2022-08-19T07:21:42;21.75;;;18.15;;
46222;SDS011;31943;51.410;7.564;2022-08-19T07:24:09;19.35;;;17.63;;
46222;SDS011;31943;51.410;7.564;2022-08-19T07:26:37;18.80;;;17.00;;
46222;SDS011;31943;51.410;7.564;2022-08-19T07:29:05;20.95;;;17.67;;
46222;SDS011;31943;51.410;7.564;2022-08-19T07:31:31;18.20;;;16.25;;
46222;SDS011;31943;51.410;7.564;2022-08-19T07:33:58;22.27;;;17.35;;
46222;SDS011;31943;51.410;7.564;2022-08-19T07:36:25;20.48;;;15.57;;
46222;SDS011;31943;51.410;7.564;2022-08-19T07:38:53;18.85;;;15.52;;
46222;SDS011;31943;51.410;7.564;2022-08-19T07:41:22;17.58;;;15.55;;
46222;SDS011;31943;51.410;7.564;2022-08-19T07:43:50;17.35;;;15.52;;
46222;SDS011;31943;51.410;7.564;2022-08-19T07:46:16;16.85;;;15.10;;
46222;SDS011;31943;51.410;7.564;2022-08-19T07:48:44;20.60;;;15.10;;
46222;SDS011;31943;51.410;7.564;2022-08-19T07:51:10;21.98;;;16.95;;
46222;SDS011;31943;51.410;7.564;2022-08-19T07:53:36;18.67;;;15.43;;
46222;SDS011;31943;51.410;7.564;2022-08-19T07:56:03;20.58;;;14.98;;
46222;SDS011;31943;51.410;7.564;2022-08-19T07:58:33;18.20;;;15.73;;
46222;SDS011;31943;51.410;7.564;2022-08-19T08:01:01;19.30;;;17.15;;
46222;SDS011;31943;51.410;7.564;2022-08-19T08:03:29;23.10;;;16.67;;
46222;SDS011;31943;51.410;7.564;2022-08-19T08:05:54;18.90;;;16.75;;
46222;SDS011;31943;51.410;7.564;2022-08-19T08:08:20;18.65;;;16.70;;
46222;SDS011;31943;51.410;7.564;2022-08-19T08:10:47;20.20;;;18.00;;
46222;SDS011;31943;51.410;7.564;2022-08-19T08:13:13;19.25;;;17.30;;
46222;SDS011;31943;51.410;7.564;2022-08-19T08:15:40;18.48;;;16.55;;
46222;SDS011;31943;51.410;7.564;2022-08-19T08:18:06;19.10;;;16.88;;
46222;SDS011;31943;51.410;7.564;2022-08-19T08:20:32;20.10;;;18.13;;
46222;SDS011;31943;51.410;7.564;2022-08-19T08:22:58;24.52;;;15.55;;
46222;SDS011;31943;51.410;7.564;2022-08-19T08:25:23;19.48;;;17.48;;
46222;SDS011;31943;51.410;7.564;2022-08-19T08:27:49;16.55;;;14.75;;
46222;SDS011;31943;51.410;7.564;2022-08-19T08:30:16;19.63;;;14.80;;
46222;SDS011;31943;51.410;7.564;2022-08-19T08:32:45;14.77;;;13.25;;
46222;SDS011;31943;51.410;7.564;2022-08-19T08:35:12;17.38;;;13.75;;
46222;SDS011;31943;51.410;7.564;2022-08-19T08:37:39;12.07;;;10.95;;
46222;SDS011;31943;51.410;7.564;2022-08-19T08:40:05;14.10;;;11.60;;
46222;SDS011;31943;51.410;7.564;2022-08-19T08:42:40;13.48;;;11.65;;
46222;SDS011;31943;51.410;7.564;2022-08-19T08:45:14;13.00;;;9.85;;
46222;SDS011;31943;51.410;7.564;2022-08-19T08:47:43;10.93;;;9.93;;
46222;SDS011;31943;51.410;7.564;2022-08-19T08:50:16;11.48;;;10.35;;
46222;SDS011;31943;51.410;7.564;2022-08-19T08:52:45;11.93;;;9.73;;
46222;SDS011;31943;51.410;7.564;2022-08-19T08:55:14;11.60;;;10.40;;
46222;SDS011;31943;51.410;7.564;2022-08-19T08:57:43;12.05;;;10.73;;
46222;SDS011;31943;51.410;7.564;2022-08-19T09:00:16;10.15;;;9.15;;
46222;SDS011;31943;51.410;7.564;2022-08-19T09:02:46;10.55;;;9.48;;
46222;SDS011;31943;51.410;7.564;2022-08-19T09:05:12;10.10;;;9.10;;
46222;SDS011;31943;51.410;7.564;2022-08-19T09:07:40;11.10;;;10.05;;
46222;SDS011;31943;51.410;7.564;2022-08-19T09:10:14;11.63;;;10.43;;
46222;SDS011;31943;51.410;7.564;2022-08-19T09:12:47;10.60;;;9.60;;
46222;SDS011;31943;51.410;7.564;2022-08-19T09:15:24;10.95;;;9.98;;
46222;SDS011;31943;51.410;7.564;2022-08-19T09:17:58;9.68;;;8.77;;
46222;SDS011;31943;51.410;7.564;2022-08-19T09:20:25;9.98;;;9.07;;
46222;SDS011;31943;51.410;7.564;2022-08-19T09:22:50;11.25;;;10.15;;
46222;SDS011;31943;51.410;7.564;2022-08-19T09:25:17;11.93;;;8.90;;
46222;SDS011;31943;51.410;7.564;2022-08-19T09:27:45;10.82;;;8.20;;
46222;SDS011;31943;51.410;7.564;2022-08-19T09:30:12;9.77;;;8.80;;
46222;SDS011;31943;51.410;7.564;2022-08-19T09:32:39;10.88;;;9.73;;
46222;SDS011;31943;51.410;7.564;2022-08-19T09:35:07;9.82;;;8.65;;
46222;SDS011;31943;51.410;7.564;2022-08-19T09:37:33;10.40;;;9.40;;
46222;SDS011;31943;51.410;7.564;2022-08-19T09:39:58;8.10;;;7.18;;
46222;SDS011;31943;51.410;7.564;2022-08-19T09:42:24;8.30;;;7.50;;
46222;SDS011;31943;51.410;7.564;2022-08-19T09:44:50;7.82;;;7.03;;
46222;SDS011;31943;51.410;7.564;2022-08-19T09:47:16;8.38;;;7.57;;
46222;SDS011;31943;51.410;7.564;2022-08-19T09:49:41;8.07;;;7.32;;
46222;SDS011;31943;51.410;7.564;2022-08-19T09:52:10;8.25;;;7.53;;
46222;SDS011;31943;51.410;7.564;2022-08-19T09:54:36;9.38;;;8.48;;
46222;SDS011;31943;51.410;7.564;2022-08-19T09:57:02;10.35;;;9.55;;
46222;SDS011;31943;51.410;7.564;2022-08-19T09:59:28;12.13;;;11.00;;
46222;SDS011;31943;51.410;7.564;2022-08-19T10:01:56;12.32;;;11.10;;
46222;SDS011;31943;51.410;7.564;2022-08-19T10:04:21;11.43;;;10.30;;
46222;SDS011;31943;51.410;7.564;2022-08-19T10:06:48;10.43;;;9.50;;
46222;SDS011;31943;51.410;7.564;2022-08-19T10:09:17;10.75;;;9.85;;
46222;SDS011;31943;51.410;7.564;2022-08-19T10:11:43;11.80;;;10.65;;
46222;SDS011;31943;51.410;7.564;2022-08-19T10:14:10;8.82;;;7.78;;
46222;SDS011;31943;51.410;7.564;2022-08-19T10:16:36;8.65;;;7.90;;
46222;SDS011;31943;51.410;7.564;2022-08-19T10:19:02;8.90;;;8.00;;
46222;SDS011;31943;51.410;7.564;2022-08-19T10:21:28;10.93;;;8.70;;
46222;SDS011;31943;51.410;7.564;2022-08-19T10:23:57;9.88;;;8.25;;
46222;SDS011;31943;51.410;7.564;2022-08-19T10:26:28;9.15;;;8.23;;
46222;SDS011;31943;51.410;7.564;2022-08-19T10:28:55;12.13;;;9.02;;
46222;SDS011;31943;51.410;7.564;2022-08-19T10:31:22;10.45;;;9.35;;
46222;SDS011;31943;51.410;7.564;2022-08-19T10:33:49;11.55;;;10.55;;
46222;SDS011;31943;51.410;7.564;2022-08-19T10:36:17;11.60;;;10.48;;
46222;SDS011;31943;51.410;7.564;2022-08-19T10:38:45;14.88;;;12.65;;
46222;SDS011;31943;51.410;7.564;2022-08-19T10:41:13;13.98;;;12.77;;
46222;SDS011;31943;51.410;7.564;2022-08-19T10:43:41;15.90;;;14.65;;
46222;SDS011;31943;51.410;7.564;2022-08-19T10:46:09;19.33;;;17.67;;
46222;SDS011;31943;51.410;7.564;2022-08-19T10:48:36;19.77;;;17.90;;
46222;SDS011;31943;51.410;7.564;2022-08-19T10:51:02;24.70;;;22.77;;
46222;SDS011;31943;51.410;7.564;2022-08-19T10:53:28;20.73;;;19.02;;
46222;SDS011;31943;51.410;7.564;2022-08-19T10:55:53;19.52;;;18.00;;
46222;SDS011;31943;51.410;7.564;2022-08-19T10:58:20;20.95;;;19.13;;
46222;SDS011;31943;51.410;7.564;2022-08-19T11:00:52;22.73;;;20.58;;
46222;SDS011;31943;51.410;7.564;2022-08-19T11:03:18;18.63;;;17.02;;
46222;SDS011;31943;51.410;7.564;2022-08-19T11:05:43;17.13;;;15.63;;
46222;SDS011;31943;51.410;7.564;2022-08-19T11:08:09;18.88;;;17.17;;
46222;SDS011;31943;51.410;7.564;2022-08-19T11:10:35;18.02;;;16.33;;
46222;SDS011;31943;51.410;7.564;2022-08-19T11:13:01;15.52;;;14.13;;
46222;SDS011;31943;51.410;7.564;2022-08-19T11:15:26;17.08;;;15.32;;
46222;SDS011;31943;51.410;7.564;2022-08-19T11:17:53;16.10;;;14.80;;
46222;SDS011;31943;51.410;7.564;2022-08-19T11:20:19;14.65;;;13.38;;
46222;SDS011;31943;51.410;7.564;2022-08-19T11:22:45;16.42;;;14.93;;
46222;SDS011;31943;51.410;7.564;2022-08-19T11:25:11;17.15;;;15.55;;
46222;SDS011;31943;51.410;7.564;2022-08-19T11:27:37;15.93;;;14.50;;
46222;SDS011;31943;51.410;7.564;2022-08-19T11:30:04;14.23;;;12.90;;
46222;SDS011;31943;51.410;7.564;2022-08-19T11:32:31;16.85;;;15.18;;
46222;SDS011;31943;51.410;7.564;2022-08-19T11:34:58;16.17;;;14.63;;
46222;SDS011;31943;51.410;7.564;2022-08-19T11:37:24;13.35;;;11.88;;
46222;SDS011;31943;51.410;7.564;2022-08-19T11:39:49;13.88;;;12.50;;
46222;SDS011;31943;51.410;7.564;2022-08-19T11:42:15;13.63;;;12.48;;
46222;SDS011;31943;51.410;7.564;2022-08-19T11:44:42;11.90;;;10.63;;
46222;SDS011;31943;51.410;7.564;2022-08-19T11:47:08;11.73;;;10.48;;
46222;SDS011;31943;51.410;7.564;2022-08-19T11:52:56;9.32;;;8.52;;
46222;SDS011;31943;51.410;7.564;2022-08-19T11:55:24;10.93;;;9.82;;
46222;SDS011;31943;51.410;7.564;2022-08-19T11:57:50;10.05;;;9.15;;
46222;SDS011;31943;51.410;7.564;2022-08-19T12:00:15;8.15;;;7.38;;
46222;SDS011;31943;51.410;7.564;2022-08-19T12:02:41;7.78;;;6.75;;
46222;SDS011;31943;51.410;7.564;2022-08-19T12:05:07;12.70;;;10.68;;
46222;SDS011;31943;51.410;7.564;2022-08-19T12:07:33;10.05;;;8.98;;
46222;SDS011;31943;51.410;7.564;2022-08-19T12:10:01;7.88;;;6.93;;
46222;SDS011;31943;51.410;7.564;2022-08-19T12:12:27;7.63;;;6.93;;
46222;SDS011;31943;51.410;7.564;2022-08-19T12:14:53;6.47;;;5.57;;
46222;SDS011;31943;51.410;7.564;2022-08-19T12:17:18;6.97;;;5.45;;
46222;SDS011;31943;51.410;7.564;2022-08-19T12:19:44;7.35;;;5.70;;
46222;SDS011;31943;51.410;7.564;2022-08-19T12:22:10;7.70;;;7.10;;
46222;SDS011;31943;51.410;7.564;2022-08-19T12:24:36;7.57;;;6.20;;
46222;SDS011;31943;51.410;7.564;2022-08-19T12:27:03;9.10;;;8.02;;
46222;SDS011;31943;51.410;7.564;2022-08-19T12:29:29;7.53;;;6.75;;
46222;SDS011;31943;51.410;7.564;2022-08-19T12:31:55;10.38;;;9.48;;
46222;SDS011;31943;51.410;7.564;2022-08-19T12:34:21;9.25;;;8.35;;
46222;SDS011;31943;51.410;7.564;2022-08-19T12:36:47;10.07;;;8.50;;
46222;SDS011;31943;51.410;7.564;2022-08-19T12:39:13;9.60;;;8.75;;
46222;SDS011;31943;51.410;7.564;2022-08-19T12:41:39;8.63;;;7.78;;
46222;SDS011;31943;51.410;7.564;2022-08-19T12:44:08;10.45;;;9.07;;
46222;SDS011;31943;51.410;7.564;2022-08-19T12:46:33;9.82;;;8.82;;
46222;SDS011;31943;51.410;7.564;2022-08-19T12:48:59;11.75;;;9.27;;
46222;SDS011;31943;51.410;7.564;2022-08-19T12:51:25;11.18;;;9.85;;
46222;SDS011;31943;51.410;7.564;2022-08-19T12:53:51;10.50;;;9.60;;
46222;SDS011;31943;51.410;7.564;2022-08-19T12:56:17;11.05;;;10.07;;
46222;SDS011;31943;51.410;7.564;2022-08-19T12:58:43;10.30;;;9.40;;
46222;SDS011;31943;51.410;7.564;2022-08-19T13:01:11;10.50;;;9.40;;
46222;SDS011;31943;51.410;7.564;2022-08-19T13:03:38;12.32;;;8.50;;
46222;SDS011;31943;51.410;7.564;2022-08-19T13:06:04;8.90;;;8.00;;
46222;SDS011;31943;51.410;7.564;2022-08-19T13:08:30;9.88;;;8.98;;
46222;SDS011;31943;51.410;7.564;2022-08-19T13:10:55;8.80;;;8.00;;
46222;SDS011;31943;51.410;7.564;2022-08-19T13:13:21;8.90;;;8.10;;
46222;SDS011;31943;51.410;7.564;2022-08-19T13:15:48;7.93;;;7.22;;
46222;SDS011;31943;51.410;7.564;2022-08-19T13:18:15;6.93;;;6.32;;
46222;SDS011;31943;51.410;7.564;2022-08-19T13:20:41;9.38;;;8.18;;
46222;SDS011;31943;51.410;7.564;2022-08-19T13:23:07;8.38;;;7.45;;
46222;SDS011;31943;51.410;7.564;2022-08-19T13:25:33;8.50;;;7.70;;
46222;SDS011;31943;51.410;7.564;2022-08-19T13:27:59;9.35;;;8.52;;
46222;SDS011;31943;51.410;7.564;2022-08-19T13:30:25;9.63;;;8.13;;
46222;SDS011;31943;51.410;7.564;2022-08-19T13:32:50;8.00;;;7.30;;
46222;SDS011;31943;51.410;7.564;2022-08-19T13:35:18;8.15;;;7.22;;
46222;SDS011;31943;51.410;7.564;2022-08-19T13:37:44;8.50;;;7.70;;
46222;SDS011;31943;51.410;7.564;2022-08-19T13:40:10;7.70;;;7.00;;
46222;SDS011;31943;51.410;7.564;2022-08-19T13:42:38;7.88;;;7.03;;
46222;SDS011;31943;51.410;7.564;2022-08-19T13:45:04;6.78;;;6.05;;
46222;SDS011;31943;51.410;7.564;2022-08-19T13:47:30;8.13;;;6.28;;
46222;SDS011;31943;51.410;7.564;2022-08-19T13:49:56;6.38;;;5.78;;
46222;SDS011;31943;51.410;7.564;2022-08-19T13:52:23;6.57;;;6.00;;
46222;SDS011;31943;51.410;7.564;2022-08-19T13:54:49;6.78;;;6.15;;
46222;SDS011;31943;51.410;7.564;2022-08-19T13:57:14;6.30;;;5.70;;
46222;SDS011;31943;51.410;7.564;2022-08-19T13:59:40;6.05;;;5.50;;
46222;SDS011;31943;51.410;7.564;2022-08-19T14:02:07;5.45;;;4.75;;
46222;SDS011;31943;51.410;7.564;2022-08-19T14:04:33;6.30;;;5.70;;
46222;SDS011;31943;51.410;7.564;2022-08-19T14:06:59;6.53;;;5.53;;
46222;SDS011;31943;51.410;7.564;2022-08-19T14:09:26;5.75;;;5.18;;
46222;SDS011;31943;51.410;7.564;2022-08-19T14:11:52;5.38;;;4.88;;
46222;SDS011;31943;51.410;7.564;2022-08-19T14:14:17;5.35;;;4.85;;
46222;SDS011;31943;51.410;7.564;2022-08-19T14:16:43;5.10;;;4.60;;
46222;SDS011;31943;51.410;7.564;2022-08-19T14:19:09;5.82;;;4.78;;
46222;SDS011;31943;51.410;7.564;2022-08-19T14:21:34;7.95;;;5.45;;
46222;SDS011;31943;51.410;7.564;2022-08-19T14:24:00;5.03;;;4.63;;
46222;SDS011;31943;51.410;7.564;2022-08-19T14:26:27;6.63;;;4.72;;
46222;SDS011;31943;51.410;7.564;2022-08-19T14:28:53;5.55;;;4.15;;
46222;SDS011;31943;51.410;7.564;2022-08-19T14:31:19;5.90;;;4.40;;